createdAt,value
2023-03-11T00:02:21.190Z,94360.17
2023-03-11T00:12:24.434Z,94358.09
2023-03-11T00:22:27.677Z,94354.64
2023-03-11T00:32:31.002Z,94339.04
2023-03-11T00:42:34.150Z,94339.50
2023-03-11T00:52:38.510Z,94332.95
2023-03-11T01:02:42.293Z,94326.30
2023-03-11T01:12:46.033Z,94306.53
2023-03-11T01:22:49.940Z,94298.17
2023-03-11T01:32:54.382Z,94294.21
2023-03-11T01:42:59.153Z,94292.47
2023-03-11T01:53:05.369Z,94291.64
2023-03-11T02:03:17.976Z,94284.84
2023-03-11T02:13:21.774Z,94276.94
2023-03-11T02:23:34.198Z,94304.41
2023-03-11T02:33:38.016Z,94333.79
2023-03-11T02:43:46.162Z,94337.89
2023-03-11T02:53:53.012Z,94332.42
2023-03-11T03:03:57.089Z,94332.77
2023-03-11T03:14:00.680Z,94329.48
2023-03-11T03:24:04.313Z,94345.27
2023-03-11T03:34:09.660Z,94347.98
2023-03-11T03:44:13.266Z,94327.50
2023-03-11T03:54:18.024Z,94306.11
2023-03-11T04:04:22.609Z,94306.80
2023-03-11T04:14:26.269Z,94294.13
2023-03-11T04:24:35.320Z,94286.20
2023-03-11T04:34:39.434Z,94284.23
2023-03-11T04:44:42.840Z,94275.16
2023-03-11T04:54:46.584Z,94264.35
2023-03-11T05:04:49.902Z,94260.77
2023-03-11T05:14:53.662Z,94255.97
2023-03-11T05:24:57.415Z,94255.21
2023-03-11T05:35:01.547Z,94245.40
2023-03-11T05:45:05.430Z,94237.71
2023-03-11T05:55:12.426Z,94245.53
2023-03-11T06:05:17.231Z,94261.65
2023-03-11T06:15:23.657Z,94273.45
2023-03-11T06:25:29.026Z,94292.58
2023-03-11T06:35:32.768Z,94371.95
2023-03-11T06:45:36.129Z,94397.41
2023-03-11T06:55:39.337Z,94410.31
2023-03-11T07:05:43.900Z,94409.43
2023-03-11T07:15:47.908Z,94414.52
2023-03-11T07:25:53.733Z,94428.46
2023-03-11T07:35:57.031Z,94446.16
2023-03-11T07:46:12.145Z,94468.75
2023-03-11T07:56:19.606Z,94486.17
2023-03-11T08:06:25.742Z,94494.73
2023-03-11T08:16:29.951Z,94495.02
2023-03-11T08:26:33.405Z,94506.48
2023-03-11T08:36:36.617Z,94517.06
2023-03-11T08:46:39.944Z,94529.20
2023-03-11T08:56:43.719Z,94537.42
2023-03-11T09:06:48.974Z,94551.57
2023-03-11T09:16:52.379Z,94557.20
2023-03-11T09:26:55.626Z,94572.24
2023-03-11T09:36:59.796Z,94581.73
2023-03-11T09:47:25.197Z,94592.26
2023-03-11T09:57:33.136Z,94603.70
2023-03-11T10:07:53.916Z,94618.70
2023-03-11T10:18:19.283Z,94640.81
2023-03-11T10:28:29.396Z,94660.50
2023-03-11T10:38:47.072Z,94683.11
2023-03-11T10:48:50.682Z,94694.77
2023-03-11T10:58:55.103Z,94712.27
2023-03-11T11:09:16.301Z,94723.34
2023-03-11T11:19:20.249Z,94739.30
2023-03-11T11:29:23.415Z,94763.91
2023-03-11T11:39:29.070Z,94790.96
2023-03-11T11:49:35.555Z,94811.94
2023-03-11T11:59:39.572Z,94838.08
2023-03-11T12:09:54.289Z,94852.45
2023-03-11T12:20:04.256Z,94873.75
2023-03-11T12:30:23.529Z,94897.58
2023-03-11T12:40:42.560Z,94934.88
2023-03-11T12:50:47.457Z,94969.23
2023-03-11T13:01:11.419Z,95007.17
2023-03-11T13:11:45.670Z,95044.30
2023-03-11T13:21:49.962Z,95072.06
2023-03-11T13:32:21.323Z,95093.03
2023-03-11T13:42:46.886Z,95132.03
2023-03-11T13:52:55.942Z,95146.46
2023-03-11T14:03:03.695Z,95174.09
2023-03-11T14:13:18.731Z,95197.27
2023-03-11T14:23:22.943Z,95214.75
2023-03-11T14:33:26.701Z,95245.63
2023-03-11T14:43:38.022Z,95259.35
2023-03-11T14:53:46.951Z,95287.42
2023-03-11T15:03:56.493Z,95314.91
2023-03-11T15:14:27.073Z,95335.98
2023-03-11T15:24:33.670Z,95371.71
2023-03-11T15:34:37.450Z,95384.64
2023-03-11T15:44:48.973Z,95395.38
2023-03-11T15:54:56.038Z,95412.48
2023-03-11T16:05:00.043Z,95420.26
2023-03-11T16:15:04.504Z,95440.59
2023-03-11T16:25:15.253Z,95477.82
2023-03-11T16:35:18.814Z,95495.38
2023-03-11T16:45:23.232Z,95506.73
2023-03-11T16:55:29.156Z,95525.71
2023-03-11T17:05:32.500Z,95550.36
2023-03-11T17:15:39.148Z,95566.39
2023-03-11T17:25:42.579Z,95584.59
2023-03-11T17:35:47.342Z,95594.91
2023-03-11T17:45:52.099Z,95620.11
2023-03-11T17:55:55.311Z,95655.02
2023-03-11T18:06:05.454Z,95677.65
2023-03-11T18:16:13.140Z,95711.13
2023-03-11T18:26:18.718Z,95727.90
2023-03-11T18:36:24.916Z,95749.13
2023-03-11T18:46:33.865Z,95760.48
2023-03-11T18:56:37.121Z,95789.36
2023-03-11T19:06:40.695Z,95806.52
2023-03-11T19:16:43.947Z,95818.48
2023-03-11T19:26:48.097Z,95830.00
2023-03-11T19:36:51.159Z,95851.32
2023-03-11T19:46:55.345Z,95869.12
2023-03-11T19:56:58.580Z,95889.69
2023-03-11T20:07:01.798Z,95910.81
2023-03-11T20:17:05.002Z,95915.96
2023-03-11T20:27:09.157Z,95923.37
2023-03-11T20:37:12.351Z,95948.71
2023-03-11T20:47:15.587Z,95957.48
2023-03-11T20:57:19.200Z,95973.23
2023-03-11T21:07:22.360Z,95967.57
2023-03-11T21:17:25.555Z,95973.88
2023-03-11T21:27:29.191Z,95979.27
2023-03-11T21:37:32.622Z,95981.16
2023-03-11T21:47:37.943Z,95991.27
2023-03-11T21:57:41.180Z,96000.05
2023-03-11T22:07:45.424Z,96004.09
2023-03-11T22:17:48.672Z,96015.98
2023-03-11T22:27:52.516Z,96017.55
2023-03-11T22:37:56.732Z,96023.60
2023-03-11T22:48:01.393Z,96027.95
2023-03-11T22:58:05.567Z,96042.92
2023-03-11T23:08:11.584Z,96051.19
2023-03-11T23:18:16.399Z,96047.17
2023-03-11T23:28:20.427Z,96053.19
2023-03-11T23:38:23.648Z,96062.55
2023-03-11T23:48:27.146Z,96069.70
2023-03-11T23:58:33.320Z,96077.82
